sensor_id;sensor_type;location;lat;lon;timestamp;temperature;humidity
70593;DHT22;58294;42.988;20.338;2023-12-22T00:02:25;128.30;1894.40
70593;DHT22;58294;42.988;20.338;2023-12-22T00:04:54;128.20;1920.00
70593;DHT22;58294;42.988;20.338;2023-12-22T00:07:19;128.20;1894.40
70593;DHT22;58294;42.988;20.338;2023-12-22T00:09:45;128.10;1945.60
70593;DHT22;58294;42.988;20.338;2023-12-22T00:12:11;128.20;1945.60
70593;DHT22;58294;42.988;20.338;2023-12-22T00:14:37;128.20;1971.20
70593;DHT22;58294;42.988;20.338;2023-12-22T00:17:06;128.30;1996.80
70593;DHT22;58294;42.988;20.338;2023-12-22T00:19:32;128.30;1971.20
70593;DHT22;58294;42.988;20.338;2023-12-22T00:21:58;128.30;1971.20
70593;DHT22;58294;42.988;20.338;2023-12-22T00:24:24;128.40;1971.20
70593;DHT22;58294;42.988;20.338;2023-12-22T00:26:50;128.40;1996.80
70593;DHT22;58294;42.988;20.338;2023-12-22T00:29:16;128.50;1971.20
70593;DHT22;58294;42.988;20.338;2023-12-22T00:31:41;128.50;1971.20
70593;DHT22;58294;42.988;20.338;2023-12-22T00:34:07;128.50;1920.00
70593;DHT22;58294;42.988;20.338;2023-12-22T00:36:33;128.40;1971.20
70593;DHT22;58294;42.988;20.338;2023-12-22T00:38:59;128.40;1996.80
70593;DHT22;58294;42.988;20.338;2023-12-22T00:41:24;128.50;1971.20
70593;DHT22;58294;42.988;20.338;2023-12-22T00:43:50;128.50;2022.40
70593;DHT22;58294;42.988;20.338;2023-12-22T00:46:16;128.50;2022.40
70593;DHT22;58294;42.988;20.338;2023-12-22T00:48:42;128.60;2048.00
70593;DHT22;58294;42.988;20.338;2023-12-22T00:51:07;128.70;2022.40
70593;DHT22;58294;42.988;20.338;2023-12-22T00:53:34;128.70;2022.40
70593;DHT22;58294;42.988;20.338;2023-12-22T00:56:00;128.80;2022.40
70593;DHT22;58294;42.988;20.338;2023-12-22T00:58:29;128.80;2073.60
70593;DHT22;58294;42.988;20.338;2023-12-22T01:00:55;128.90;2048.00
70593;DHT22;58294;42.988;20.338;2023-12-22T01:03:21;153.60;2073.60
70593;DHT22;58294;42.988;20.338;2023-12-22T01:05:47;153.60;2073.60
70593;DHT22;58294;42.988;20.338;2023-12-22T01:08:13;153.80;2124.80
70593;DHT22;58294;42.988;20.338;2023-12-22T01:10:38;154.00;2150.40
70593;DHT22;58294;42.988;20.338;2023-12-22T01:13:04;154.10;2124.80
70593;DHT22;58294;42.988;20.338;2023-12-22T01:15:30;154.20;2099.20
70593;DHT22;58294;42.988;20.338;2023-12-22T01:17:56;154.20;2099.20
70593;DHT22;58294;42.988;20.338;2023-12-22T01:20:21;154.30;2073.60
70593;DHT22;58294;42.988;20.338;2023-12-22T01:22:47;154.40;2099.20
70593;DHT22;58294;42.988;20.338;2023-12-22T01:25:13;154.50;2073.60
70593;DHT22;58294;42.988;20.338;2023-12-22T01:27:39;154.50;2099.20
70593;DHT22;58294;42.988;20.338;2023-12-22T01:30:05;179.20;2099.20
70593;DHT22;58294;42.988;20.338;2023-12-22T01:32:31;179.20;2099.20
70593;DHT22;58294;42.988;20.338;2023-12-22T01:35:00;179.30;2124.80
70593;DHT22;58294;42.988;20.338;2023-12-22T01:37:29;179.40;2099.20
70593;DHT22;58294;42.988;20.338;2023-12-22T01:39:55;179.40;2099.20
70593;DHT22;58294;42.988;20.338;2023-12-22T01:42:21;179.50;2099.20
70593;DHT22;58294;42.988;20.338;2023-12-22T01:44:47;179.50;2099.20
70593;DHT22;58294;42.988;20.338;2023-12-22T01:47:13;179.50;2099.20
70593;DHT22;58294;42.988;20.338;2023-12-22T01:49:40;179.60;2073.60
70593;DHT22;58294;42.988;20.338;2023-12-22T01:52:07;179.60;2099.20
70593;DHT22;58294;42.988;20.338;2023-12-22T01:54:33;179.60;2048.00
70593;DHT22;58294;42.988;20.338;2023-12-22T01:57:00;179.60;2048.00
70593;DHT22;58294;42.988;20.338;2023-12-22T01:59:26;179.50;2048.00
70593;DHT22;58294;42.988;20.338;2023-12-22T02:01:53;179.50;2022.40
70593;DHT22;58294;42.988;20.338;2023-12-22T02:04:19;179.50;2073.60
70593;DHT22;58294;42.988;20.338;2023-12-22T02:06:46;179.50;2073.60
70593;DHT22;58294;42.988;20.338;2023-12-22T02:09:11;179.50;2073.60
70593;DHT22;58294;42.988;20.338;2023-12-22T02:11:38;179.50;2099.20
70593;DHT22;58294;42.988;20.338;2023-12-22T02:14:04;179.40;2073.60
70593;DHT22;58294;42.988;20.338;2023-12-22T02:16:44;179.50;2073.60
70593;DHT22;58294;42.988;20.338;2023-12-22T02:19:40;179.40;2099.20
70593;DHT22;58294;42.988;20.338;2023-12-22T02:22:08;179.50;2099.20
70593;DHT22;58294;42.988;20.338;2023-12-22T02:24:34;179.50;2124.80
70593;DHT22;58294;42.988;20.338;2023-12-22T02:29:36;179.50;2073.60
70593;DHT22;58294;42.988;20.338;2023-12-22T02:32:07;179.40;2150.40
70593;DHT22;58294;42.988;20.338;2023-12-22T02:34:36;179.50;2099.20
70593;DHT22;58294;42.988;20.338;2023-12-22T02:37:07;179.50;2124.80
70593;DHT22;58294;42.988;20.338;2023-12-22T02:39:35;179.50;2150.40
70593;DHT22;58294;42.988;20.338;2023-12-22T02:42:02;179.50;2176.00
70593;DHT22;58294;42.988;20.338;2023-12-22T02:44:28;179.60;2227.20
70593;DHT22;58294;42.988;20.338;2023-12-22T02:46:54;179.70;2176.00
70593;DHT22;58294;42.988;20.338;2023-12-22T02:49:19;179.70;2124.80
70593;DHT22;58294;42.988;20.338;2023-12-22T02:51:45;179.70;2124.80
70593;DHT22;58294;42.988;20.338;2023-12-22T02:54:11;179.70;2073.60
70593;DHT22;58294;42.988;20.338;2023-12-22T02:56:37;179.60;2124.80
70593;DHT22;58294;42.988;20.338;2023-12-22T02:59:02;179.70;2150.40
70593;DHT22;58294;42.988;20.338;2023-12-22T03:01:28;179.70;2176.00
70593;DHT22;58294;42.988;20.338;2023-12-22T03:03:54;179.70;2150.40
70593;DHT22;58294;42.988;20.338;2023-12-22T03:06:20;179.70;2099.20
70593;DHT22;58294;42.988;20.338;2023-12-22T03:08:46;179.60;2073.60
70593;DHT22;58294;42.988;20.338;2023-12-22T03:11:11;179.60;2150.40
70593;DHT22;58294;42.988;20.338;2023-12-22T03:13:37;179.60;2150.40
70593;DHT22;58294;42.988;20.338;2023-12-22T03:16:08;179.60;2124.80
70593;DHT22;58294;42.988;20.338;2023-12-22T03:18:34;179.50;2150.40
70593;DHT22;58294;42.988;20.338;2023-12-22T03:20:59;179.60;2227.20
70593;DHT22;58294;42.988;20.338;2023-12-22T03:23:25;179.70;2227.20
70593;DHT22;58294;42.988;20.338;2023-12-22T03:25:51;179.70;2176.00
70593;DHT22;58294;42.988;20.338;2023-12-22T03:28:17;179.80;2201.60
70593;DHT22;58294;42.988;20.338;2023-12-22T03:30:42;179.70;2201.60
70593;DHT22;58294;42.988;20.338;2023-12-22T03:33:08;179.70;2201.60
70593;DHT22;58294;42.988;20.338;2023-12-22T03:35:34;179.70;2252.80
70593;DHT22;58294;42.988;20.338;2023-12-22T03:38:00;179.80;2201.60
70593;DHT22;58294;42.988;20.338;2023-12-22T03:40:26;179.80;2252.80
70593;DHT22;58294;42.988;20.338;2023-12-22T03:42:52;179.80;2252.80
70593;DHT22;58294;42.988;20.338;2023-12-22T03:45:17;179.80;2252.80
70593;DHT22;58294;42.988;20.338;2023-12-22T03:47:43;179.80;2252.80
70593;DHT22;58294;42.988;20.338;2023-12-22T03:50:09;179.80;2252.80
70593;DHT22;58294;42.988;20.338;2023-12-22T03:52:35;179.80;2252.80
70593;DHT22;58294;42.988;20.338;2023-12-22T03:55:01;179.80;2252.80
70593;DHT22;58294;42.988;20.338;2023-12-22T03:57:27;179.80;2252.80
70593;DHT22;58294;42.988;20.338;2023-12-22T03:59:53;179.80;2252.80
70593;DHT22;58294;42.988;20.338;2023-12-22T04:02:19;179.80;2252.80
70593;DHT22;58294;42.988;20.338;2023-12-22T04:04:45;179.90;2252.80
70593;DHT22;58294;42.988;20.338;2023-12-22T04:07:11;179.90;2252.80
70593;DHT22;58294;42.988;20.338;2023-12-22T04:09:37;180.00;2252.80
70593;DHT22;58294;42.988;20.338;2023-12-22T04:12:04;180.10;2227.20
70593;DHT22;58294;42.988;20.338;2023-12-22T04:14:30;180.00;2252.80
70593;DHT22;58294;42.988;20.338;2023-12-22T04:16:56;180.00;2252.80
70593;DHT22;58294;42.988;20.338;2023-12-22T04:19:23;180.10;2252.80
70593;DHT22;58294;42.988;20.338;2023-12-22T04:21:49;204.80;2252.80
70593;DHT22;58294;42.988;20.338;2023-12-22T04:24:15;204.80;2252.80
70593;DHT22;58294;42.988;20.338;2023-12-22T04:26:41;204.80;2252.80
70593;DHT22;58294;42.988;20.338;2023-12-22T04:29:06;204.80;2252.80
70593;DHT22;58294;42.988;20.338;2023-12-22T04:31:32;204.80;2252.80
70593;DHT22;58294;42.988;20.338;2023-12-22T04:33:58;204.80;2252.80
70593;DHT22;58294;42.988;20.338;2023-12-22T04:36:24;204.80;2252.80
70593;DHT22;58294;42.988;20.338;2023-12-22T04:38:50;204.80;2252.80
70593;DHT22;58294;42.988;20.338;2023-12-22T04:41:15;204.80;2252.80
70593;DHT22;58294;42.988;20.338;2023-12-22T04:43:41;204.80;2252.80
70593;DHT22;58294;42.988;20.338;2023-12-22T04:46:07;204.80;2252.80
70593;DHT22;58294;42.988;20.338;2023-12-22T04:48:33;204.80;2252.80
70593;DHT22;58294;42.988;20.338;2023-12-22T04:50:59;204.80;2252.80
70593;DHT22;58294;42.988;20.338;2023-12-22T04:53:25;204.80;2252.80
70593;DHT22;58294;42.988;20.338;2023-12-22T04:55:50;204.80;2176.00
70593;DHT22;58294;42.988;20.338;2023-12-22T04:58:16;180.10;2227.20
70593;DHT22;58294;42.988;20.338;2023-12-22T05:00:42;180.10;2227.20
70593;DHT22;58294;42.988;20.338;2023-12-22T05:03:08;180.10;2227.20
70593;DHT22;58294;42.988;20.338;2023-12-22T05:05:34;180.10;2227.20
70593;DHT22;58294;42.988;20.338;2023-12-22T05:07:59;180.10;2252.80
70593;DHT22;58294;42.988;20.338;2023-12-22T05:10:25;180.00;2252.80
70593;DHT22;58294;42.988;20.338;2023-12-22T05:12:51;180.10;2227.20
70593;DHT22;58294;42.988;20.338;2023-12-22T05:15:17;180.10;2252.80
70593;DHT22;58294;42.988;20.338;2023-12-22T05:17:42;180.10;2252.80
70593;DHT22;58294;42.988;20.338;2023-12-22T05:20:09;180.10;2252.80
70593;DHT22;58294;42.988;20.338;2023-12-22T05:22:36;180.10;2252.80
70593;DHT22;58294;42.988;20.338;2023-12-22T05:25:02;180.00;2252.80
70593;DHT22;58294;42.988;20.338;2023-12-22T05:27:28;180.00;2227.20
70593;DHT22;58294;42.988;20.338;2023-12-22T05:29:54;180.00;2252.80
70593;DHT22;58294;42.988;20.338;2023-12-22T05:32:20;180.00;2252.80
70593;DHT22;58294;42.988;20.338;2023-12-22T05:34:46;180.00;2252.80
70593;DHT22;58294;42.988;20.338;2023-12-22T05:37:11;180.10;2252.80
70593;DHT22;58294;42.988;20.338;2023-12-22T05:39:37;180.10;2252.80
70593;DHT22;58294;42.988;20.338;2023-12-22T05:42:03;180.00;2252.80
70593;DHT22;58294;42.988;20.338;2023-12-22T05:44:29;180.00;2201.60
70593;DHT22;58294;42.988;20.338;2023-12-22T05:46:57;180.00;2252.80
70593;DHT22;58294;42.988;20.338;2023-12-22T05:49:22;180.00;2252.80
70593;DHT22;58294;42.988;20.338;2023-12-22T05:51:49;180.00;2252.80
70593;DHT22;58294;42.988;20.338;2023-12-22T05:54:15;180.00;2252.80
70593;DHT22;58294;42.988;20.338;2023-12-22T05:56:42;180.00;2252.80
70593;DHT22;58294;42.988;20.338;2023-12-22T05:59:08;180.00;2252.80
70593;DHT22;58294;42.988;20.338;2023-12-22T06:01:34;180.00;2252.80
70593;DHT22;58294;42.988;20.338;2023-12-22T06:03:59;180.00;2252.80
70593;DHT22;58294;42.988;20.338;2023-12-22T06:06:25;180.00;2252.80
70593;DHT22;58294;42.988;20.338;2023-12-22T06:08:53;180.00;2252.80
70593;DHT22;58294;42.988;20.338;2023-12-22T06:11:19;180.00;2227.20
70593;DHT22;58294;42.988;20.338;2023-12-22T06:13:44;179.90;2227.20
70593;DHT22;58294;42.988;20.338;2023-12-22T06:16:14;179.90;2252.80
70593;DHT22;58294;42.988;20.338;2023-12-22T06:18:43;179.90;2252.80
70593;DHT22;58294;42.988;20.338;2023-12-22T06:21:09;179.90;2252.80
70593;DHT22;58294;42.988;20.338;2023-12-22T06:23:36;179.90;2252.80
70593;DHT22;58294;42.988;20.338;2023-12-22T06:26:07;180.00;2252.80
70593;DHT22;58294;42.988;20.338;2023-12-22T06:28:33;179.90;2227.20
70593;DHT22;58294;42.988;20.338;2023-12-22T06:31:01;179.90;2252.80
70593;DHT22;58294;42.988;20.338;2023-12-22T06:33:28;179.90;2252.80
70593;DHT22;58294;42.988;20.338;2023-12-22T06:35:54;179.90;2252.80
70593;DHT22;58294;42.988;20.338;2023-12-22T06:38:20;179.90;2252.80
70593;DHT22;58294;42.988;20.338;2023-12-22T06:40:45;179.90;2252.80
70593;DHT22;58294;42.988;20.338;2023-12-22T06:43:14;179.90;2227.20
70593;DHT22;58294;42.988;20.338;2023-12-22T06:45:40;179.80;2150.40
70593;DHT22;58294;42.988;20.338;2023-12-22T06:48:07;179.80;2252.80
70593;DHT22;58294;42.988;20.338;2023-12-22T06:50:32;179.80;2227.20
70593;DHT22;58294;42.988;20.338;2023-12-22T06:52:59;179.80;2252.80
70593;DHT22;58294;42.988;20.338;2023-12-22T06:55:25;179.80;2252.80
70593;DHT22;58294;42.988;20.338;2023-12-22T06:57:50;179.80;2252.80
70593;DHT22;58294;42.988;20.338;2023-12-22T07:00:16;179.80;2252.80
70593;DHT22;58294;42.988;20.338;2023-12-22T07:02:42;179.80;2252.80
70593;DHT22;58294;42.988;20.338;2023-12-22T07:07:50;179.90;2252.80
70593;DHT22;58294;42.988;20.338;2023-12-22T07:10:16;179.90;2252.80
70593;DHT22;58294;42.988;20.338;2023-12-22T07:12:42;179.90;2252.80
70593;DHT22;58294;42.988;20.338;2023-12-22T07:15:08;179.90;2252.80
70593;DHT22;58294;42.988;20.338;2023-12-22T07:17:34;179.80;2252.80
70593;DHT22;58294;42.988;20.338;2023-12-22T07:20:00;179.90;2252.80
70593;DHT22;58294;42.988;20.338;2023-12-22T07:22:28;179.90;2252.80
70593;DHT22;58294;42.988;20.338;2023-12-22T07:24:54;179.90;2252.80
70593;DHT22;58294;42.988;20.338;2023-12-22T07:27:21;179.90;2252.80
70593;DHT22;58294;42.988;20.338;2023-12-22T07:29:47;179.90;2252.80
70593;DHT22;58294;42.988;20.338;2023-12-22T07:32:14;180.10;2252.80
70593;DHT22;58294;42.988;20.338;2023-12-22T07:34:40;180.10;2252.80
70593;DHT22;58294;42.988;20.338;2023-12-22T07:37:06;204.80;2252.80
70593;DHT22;58294;42.988;20.338;2023-12-22T07:39:31;204.80;2252.80
70593;DHT22;58294;42.988;20.338;2023-12-22T07:41:57;204.80;2252.80
70593;DHT22;58294;42.988;20.338;2023-12-22T07:44:23;180.10;2252.80
70593;DHT22;58294;42.988;20.338;2023-12-22T07:46:59;204.80;2252.80
70593;DHT22;58294;42.988;20.338;2023-12-22T07:49:25;204.80;2252.80
70593;DHT22;58294;42.988;20.338;2023-12-22T07:51:52;204.90;2252.80
70593;DHT22;58294;42.988;20.338;2023-12-22T07:54:18;204.90;2252.80
70593;DHT22;58294;42.988;20.338;2023-12-22T07:56:44;205.00;2252.80
70593;DHT22;58294;42.988;20.338;2023-12-22T07:59:10;205.10;2252.80
70593;DHT22;58294;42.988;20.338;2023-12-22T08:01:35;205.20;2252.80
70593;DHT22;58294;42.988;20.338;2023-12-22T08:04:01;205.20;2252.80
70593;DHT22;58294;42.988;20.338;2023-12-22T08:06:27;205.20;2252.80
70593;DHT22;58294;42.988;20.338;2023-12-22T08:08:53;205.30;2252.80
70593;DHT22;58294;42.988;20.338;2023-12-22T08:11:20;205.30;2252.80
70593;DHT22;58294;42.988;20.338;2023-12-22T08:13:47;205.40;2252.80
70593;DHT22;58294;42.988;20.338;2023-12-22T08:16:12;205.40;2252.80
70593;DHT22;58294;42.988;20.338;2023-12-22T08:18:38;205.50;2252.80
70593;DHT22;58294;42.988;20.338;2023-12-22T08:21:04;205.60;2252.80
70593;DHT22;58294;42.988;20.338;2023-12-22T08:23:31;205.60;2252.80
70593;DHT22;58294;42.988;20.338;2023-12-22T08:25:57;205.60;2252.80
70593;DHT22;58294;42.988;20.338;2023-12-22T08:28:24;205.60;2227.20
70593;DHT22;58294;42.988;20.338;2023-12-22T08:30:49;205.60;2227.20
70593;DHT22;58294;42.988;20.338;2023-12-22T08:33:15;205.60;2201.60
70593;DHT22;58294;42.988;20.338;2023-12-22T08:35:41;205.60;2227.20
70593;DHT22;58294;42.988;20.338;2023-12-22T08:38:07;205.60;2227.20
70593;DHT22;58294;42.988;20.338;2023-12-22T08:40:33;205.60;2227.20
70593;DHT22;58294;42.988;20.338;2023-12-22T08:42:59;205.60;2201.60
70593;DHT22;58294;42.988;20.338;2023-12-22T08:45:26;205.70;2252.80
70593;DHT22;58294;42.988;20.338;2023-12-22T08:47:55;205.70;2227.20
70593;DHT22;58294;42.988;20.338;2023-12-22T08:50:21;205.70;2201.60
70593;DHT22;58294;42.988;20.338;2023-12-22T08:52:47;205.70;2201.60
70593;DHT22;58294;42.988;20.338;2023-12-22T08:55:13;205.70;2227.20
70593;DHT22;58294;42.988;20.338;2023-12-22T08:57:39;205.70;2252.80
70593;DHT22;58294;42.988;20.338;2023-12-22T09:00:06;205.70;2252.80
70593;DHT22;58294;42.988;20.338;2023-12-22T09:02:32;230.40;2227.20
70593;DHT22;58294;42.988;20.338;2023-12-22T09:04:57;230.40;2201.60
70593;DHT22;58294;42.988;20.338;2023-12-22T09:07:23;230.40;2252.80
70593;DHT22;58294;42.988;20.338;2023-12-22T09:09:50;230.40;2227.20
70593;DHT22;58294;42.988;20.338;2023-12-22T09:12:16;230.40;2252.80
70593;DHT22;58294;42.988;20.338;2023-12-22T09:14:41;230.40;2252.80
70593;DHT22;58294;42.988;20.338;2023-12-22T09:17:07;230.40;2227.20
70593;DHT22;58294;42.988;20.338;2023-12-22T09:19:33;230.40;2227.20
70593;DHT22;58294;42.988;20.338;2023-12-22T09:21:59;230.50;2252.80
70593;DHT22;58294;42.988;20.338;2023-12-22T09:24:25;230.50;2252.80
70593;DHT22;58294;42.988;20.338;2023-12-22T09:26:51;230.50;2252.80
70593;DHT22;58294;42.988;20.338;2023-12-22T09:29:17;230.50;2201.60
70593;DHT22;58294;42.988;20.338;2023-12-22T09:31:43;230.40;2201.60
70593;DHT22;58294;42.988;20.338;2023-12-22T09:34:09;230.40;2227.20
70593;DHT22;58294;42.988;20.338;2023-12-22T09:36:35;230.40;2252.80
70593;DHT22;58294;42.988;20.338;2023-12-22T09:39:01;230.40;2252.80
70593;DHT22;58294;42.988;20.338;2023-12-22T09:41:27;230.40;2227.20
70593;DHT22;58294;42.988;20.338;2023-12-22T09:43:56;230.40;2176.00
70593;DHT22;58294;42.988;20.338;2023-12-22T09:46:23;230.40;2227.20
70593;DHT22;58294;42.988;20.338;2023-12-22T09:48:52;205.70;2201.60
70593;DHT22;58294;42.988;20.338;2023-12-22T09:51:19;205.60;2252.80
70593;DHT22;58294;42.988;20.338;2023-12-22T09:53:45;205.50;2252.80
70593;DHT22;58294;42.988;20.338;2023-12-22T09:56:14;205.30;2252.80
70593;DHT22;58294;42.988;20.338;2023-12-22T09:58:41;205.10;2252.80
70593;DHT22;58294;42.988;20.338;2023-12-22T10:01:07;204.80;2252.80
70593;DHT22;58294;42.988;20.338;2023-12-22T10:03:34;180.10;2252.80
70593;DHT22;58294;42.988;20.338;2023-12-22T10:06:01;179.80;2252.80
70593;DHT22;58294;42.988;20.338;2023-12-22T10:08:27;179.70;2252.80
70593;DHT22;58294;42.988;20.338;2023-12-22T10:10:54;179.50;2252.80
70593;DHT22;58294;42.988;20.338;2023-12-22T10:13:21;179.40;2252.80
70593;DHT22;58294;42.988;20.338;2023-12-22T10:15:47;179.20;2252.80
70593;DHT22;58294;42.988;20.338;2023-12-22T10:18:13;179.20;2252.80
70593;DHT22;58294;42.988;20.338;2023-12-22T10:20:39;179.20;2252.80
70593;DHT22;58294;42.988;20.338;2023-12-22T10:23:05;179.20;2252.80
70593;DHT22;58294;42.988;20.338;2023-12-22T10:25:31;179.20;2252.80
70593;DHT22;58294;42.988;20.338;2023-12-22T10:28:00;179.20;2252.80
70593;DHT22;58294;42.988;20.338;2023-12-22T10:30:28;179.20;2252.80
70593;DHT22;58294;42.988;20.338;2023-12-22T10:32:54;179.20;2252.80
70593;DHT22;58294;42.988;20.338;2023-12-22T10:35:20;154.50;2252.80
70593;DHT22;58294;42.988;20.338;2023-12-22T11:20:47;103.00;2227.20
70593;DHT22;58294;42.988;20.338;2023-12-22T11:23:14;128.90;2252.80
70593;DHT22;58294;42.988;20.338;2023-12-22T11:25:42;128.90;2252.80
70593;DHT22;58294;42.988;20.338;2023-12-22T11:28:09;153.60;2252.80
70593;DHT22;58294;42.988;20.338;2023-12-22T11:30:37;153.70;2252.80
70593;DHT22;58294;42.988;20.338;2023-12-22T11:33:04;153.90;2252.80
70593;DHT22;58294;42.988;20.338;2023-12-22T11:35:30;154.00;2252.80
70593;DHT22;58294;42.988;20.338;2023-12-22T11:37:57;154.10;2252.80
70593;DHT22;58294;42.988;20.338;2023-12-22T11:40:24;154.20;2252.80
70593;DHT22;58294;42.988;20.338;2023-12-22T11:42:51;154.30;2252.80
70593;DHT22;58294;42.988;20.338;2023-12-22T11:45:18;154.40;2252.80
70593;DHT22;58294;42.988;20.338;2023-12-22T11:47:45;179.20;2252.80
70593;DHT22;58294;42.988;20.338;2023-12-22T11:50:12;179.20;2252.80
70593;DHT22;58294;42.988;20.338;2023-12-22T11:52:38;179.20;2252.80
70593;DHT22;58294;42.988;20.338;2023-12-22T11:55:04;179.30;2252.80
70593;DHT22;58294;42.988;20.338;2023-12-22T12:02:54;179.40;2252.80
70593;DHT22;58294;42.988;20.338;2023-12-22T12:05:20;179.40;2252.80
70593;DHT22;58294;42.988;20.338;2023-12-22T12:07:47;179.50;2252.80
70593;DHT22;58294;42.988;20.338;2023-12-22T12:13:11;179.50;2252.80
70593;DHT22;58294;42.988;20.338;2023-12-22T12:15:41;179.60;2252.80
70593;DHT22;58294;42.988;20.338;2023-12-22T12:18:08;179.60;2252.80
70593;DHT22;58294;42.988;20.338;2023-12-22T12:20:34;179.60;2252.80
70593;DHT22;58294;42.988;20.338;2023-12-22T12:23:03;179.60;2252.80
70593;DHT22;58294;42.988;20.338;2023-12-22T12:25:32;179.60;2252.80
70593;DHT22;58294;42.988;20.338;2023-12-22T12:30:28;179.70;2252.80
70593;DHT22;58294;42.988;20.338;2023-12-22T12:32:54;179.70;2252.80
70593;DHT22;58294;42.988;20.338;2023-12-22T12:35:28;179.60;2252.80
70593;DHT22;58294;42.988;20.338;2023-12-22T12:37:55;179.60;2252.80
70593;DHT22;58294;42.988;20.338;2023-12-22T12:40:24;179.50;2252.80
70593;DHT22;58294;42.988;20.338;2023-12-22T12:42:50;179.50;2252.80
70593;DHT22;58294;42.988;20.338;2023-12-22T12:45:25;179.50;2252.80
70593;DHT22;58294;42.988;20.338;2023-12-22T13:10:35;154.30;2252.80
70593;DHT22;58294;42.988;20.338;2023-12-22T13:13:01;179.40;2252.80
70593;DHT22;58294;42.988;20.338;2023-12-22T13:15:28;179.40;2252.80
70593;DHT22;58294;42.988;20.338;2023-12-22T13:17:55;179.40;2252.80
70593;DHT22;58294;42.988;20.338;2023-12-22T13:20:21;179.40;2252.80
70593;DHT22;58294;42.988;20.338;2023-12-22T13:22:47;179.50;2252.80
70593;DHT22;58294;42.988;20.338;2023-12-22T13:25:13;179.50;2252.80
70593;DHT22;58294;42.988;20.338;2023-12-22T13:27:49;179.50;2252.80
70593;DHT22;58294;42.988;20.338;2023-12-22T13:30:37;179.50;2252.80
70593;DHT22;58294;42.988;20.338;2023-12-22T13:33:06;179.60;2252.80
70593;DHT22;58294;42.988;20.338;2023-12-22T13:35:33;179.60;2252.80
70593;DHT22;58294;42.988;20.338;2023-12-22T13:38:05;179.60;2252.80
70593;DHT22;58294;42.988;20.338;2023-12-22T13:40:31;179.60;2252.80
70593;DHT22;58294;42.988;20.338;2023-12-22T13:42:58;179.50;2252.80
70593;DHT22;58294;42.988;20.338;2023-12-22T13:45:27;179.60;2252.80
70593;DHT22;58294;42.988;20.338;2023-12-22T13:47:53;179.60;2252.80
70593;DHT22;58294;42.988;20.338;2023-12-22T13:50:19;179.60;2252.80
70593;DHT22;58294;42.988;20.338;2023-12-22T13:52:48;179.60;2252.80
70593;DHT22;58294;42.988;20.338;2023-12-22T13:55:17;179.70;2252.80
70593;DHT22;58294;42.988;20.338;2023-12-22T13:57:43;179.70;2252.80
70593;DHT22;58294;42.988;20.338;2023-12-22T14:02:47;179.70;2252.80
70593;DHT22;58294;42.988;20.338;2023-12-22T14:05:17;179.70;2252.80
70593;DHT22;58294;42.988;20.338;2023-12-22T14:07:46;179.60;2252.80
70593;DHT22;58294;42.988;20.338;2023-12-22T14:10:13;179.60;2252.80
70593;DHT22;58294;42.988;20.338;2023-12-22T14:12:40;179.60;2252.80
70593;DHT22;58294;42.988;20.338;2023-12-22T14:15:07;179.60;2252.80
70593;DHT22;58294;42.988;20.338;2023-12-22T14:17:33;179.60;2252.80
70593;DHT22;58294;42.988;20.338;2023-12-22T14:19:59;179.70;2252.80
70593;DHT22;58294;42.988;20.338;2023-12-22T14:22:25;179.60;2252.80
70593;DHT22;58294;42.988;20.338;2023-12-22T14:24:52;179.70;2252.80
70593;DHT22;58294;42.988;20.338;2023-12-22T14:27:18;179.70;2252.80
70593;DHT22;58294;42.988;20.338;2023-12-22T14:29:44;179.70;2252.80
70593;DHT22;58294;42.988;20.338;2023-12-22T14:32:11;179.70;2252.80
70593;DHT22;58294;42.988;20.338;2023-12-22T14:34:38;179.70;2252.80
70593;DHT22;58294;42.988;20.338;2023-12-22T14:37:04;179.70;2252.80
70593;DHT22;58294;42.988;20.338;2023-12-22T14:39:30;179.60;2252.80
70593;DHT22;58294;42.988;20.338;2023-12-22T14:41:57;179.60;2252.80
70593;DHT22;58294;42.988;20.338;2023-12-22T14:44:22;179.50;2252.80
70593;DHT22;58294;42.988;20.338;2023-12-22T14:46:49;179.50;2252.80
70593;DHT22;58294;42.988;20.338;2023-12-22T14:49:14;179.60;2252.80
70593;DHT22;58294;42.988;20.338;2023-12-22T14:51:40;179.60;2252.80
70593;DHT22;58294;42.988;20.338;2023-12-22T14:54:07;179.60;2252.80
70593;DHT22;58294;42.988;20.338;2023-12-22T14:56:34;179.60;2252.80
70593;DHT22;58294;42.988;20.338;2023-12-22T14:59:00;179.70;2252.80
70593;DHT22;58294;42.988;20.338;2023-12-22T15:01:26;179.70;2252.80
70593;DHT22;58294;42.988;20.338;2023-12-22T15:03:53;179.70;2252.80
70593;DHT22;58294;42.988;20.338;2023-12-22T15:06:19;179.60;2252.80
70593;DHT22;58294;42.988;20.338;2023-12-22T15:08:45;179.60;2252.80
70593;DHT22;58294;42.988;20.338;2023-12-22T15:11:10;179.60;2252.80
70593;DHT22;58294;42.988;20.338;2023-12-22T15:13:38;179.60;2252.80
70593;DHT22;58294;42.988;20.338;2023-12-22T15:16:05;179.60;2252.80
70593;DHT22;58294;42.988;20.338;2023-12-22T15:18:31;179.60;2252.80
70593;DHT22;58294;42.988;20.338;2023-12-22T15:20:57;179.60;2252.80
70593;DHT22;58294;42.988;20.338;2023-12-22T15:23:23;179.50;2252.80
70593;DHT22;58294;42.988;20.338;2023-12-22T15:25:48;179.50;2252.80
70593;DHT22;58294;42.988;20.338;2023-12-22T15:28:14;179.50;2252.80
70593;DHT22;58294;42.988;20.338;2023-12-22T15:30:40;179.40;2252.80
70593;DHT22;58294;42.988;20.338;2023-12-22T15:33:06;179.30;2252.80
70593;DHT22;58294;42.988;20.338;2023-12-22T15:35:32;179.30;2252.80
70593;DHT22;58294;42.988;20.338;2023-12-22T15:37:57;179.20;2252.80
70593;DHT22;58294;42.988;20.338;2023-12-22T15:40:23;179.20;2252.80
70593;DHT22;58294;42.988;20.338;2023-12-22T15:42:49;179.20;2252.80
70593;DHT22;58294;42.988;20.338;2023-12-22T15:45:15;179.30;2252.80
70593;DHT22;58294;42.988;20.338;2023-12-22T15:47:41;179.30;2252.80
70593;DHT22;58294;42.988;20.338;2023-12-22T15:50:08;179.40;2252.80
70593;DHT22;58294;42.988;20.338;2023-12-22T15:52:34;179.40;2252.80
70593;DHT22;58294;42.988;20.338;2023-12-22T15:55:00;179.40;2252.80
70593;DHT22;58294;42.988;20.338;2023-12-22T15:57:26;179.40;2252.80